Item Display Status Serial CT Sensor

Mooring Depth: 1 m

 

Deployed Sensor

  • Serial Number: 10456
  • NDBC Property Number: 36452
  • Start Date: 10/14/2022 (06:51:59 Z)
  • End Date: 9/24/2023 (17:00:00 Z)
Water Temperature [°C]     6 entries per hour
Showing data from 1/8/2023 (17:30:00 Z) to 1/7/2023 (00:00:01 Z)
Previous Next [ Day | 3-Days | 7-Days ]
First Last
Prev [ Day | 3-Days | 7-Days ] Next
First Last

Start Time:     :
End Time:     :     
Time (in GMT) :00 :50 :40 :30 :20 :10
Previous Next [ Day | 3-Days | 7-Days ]
First Last
Prev [ Day | 3-Days | 7-Days ] Next
First Last


123 => good data
MM => data is determined as missing
-- => data not received/configured
Back to Top Back to Top
1/8/2023 18:00 to 17:10 -- -- -- 26.490 26.493 26.492
1/8/2023 17:00 to 16:10 26.488 26.486 26.483 26.492 26.488 26.486
1/8/2023 16:00 to 15:10 26.485 26.502 26.491 26.499 26.494 26.501
1/8/2023 15:00 to 14:10 26.500 26.510 26.505 26.487 26.497 26.506
1/8/2023 14:00 to 13:10 26.510 26.517 26.515 26.519 26.507 26.499
1/8/2023 13:00 to 12:10 26.507 26.520 26.510 26.512 26.517 26.510
1/8/2023 12:00 to 11:10 26.521 26.521 26.536 26.538 26.543 26.538
1/8/2023 11:00 to 10:10 26.559 26.557 26.549 26.567 26.567 26.567
1/8/2023 10:00 to 9:10 26.568 26.566 26.573 26.566 26.577 26.588
1/8/2023 09:00 to 8:10 26.577 26.584 26.581 26.579 26.574 26.583
1/8/2023 08:00 to 7:10 26.588 26.572 26.571 26.584 26.581 26.570
1/8/2023 07:00 to 6:10 26.573 26.588 26.594 26.585 26.580 26.596
1/8/2023 06:00 to 5:10 26.586 26.594 26.594 26.597 26.606 26.605
1/8/2023 05:00 to 4:10 26.621 26.620 26.624 26.632 26.637 26.640
1/8/2023 04:00 to 3:10 26.636 26.631 26.626 26.638 26.644 26.645
1/8/2023 03:00 to 2:10 26.656 26.662 26.669 26.677 26.671 26.675
1/8/2023 02:00 to 1:10 26.675 26.663 26.677 26.656 26.663 26.670
1/8/2023 01:00 to 0:10 26.662 26.650 26.636 26.630 26.665 26.653
1/8/2023 00:00 to 23:10 26.654 26.645 26.658 26.633 26.638 26.634
1/7/2023 23:00 to 22:10 26.629 26.616 26.626 26.614 26.617 26.624
1/7/2023 22:00 to 21:10 26.616 26.611 26.609 26.618 26.609 26.607
1/7/2023 21:00 to 20:10 26.599 26.600 26.596 26.600 26.600 26.601
1/7/2023 20:00 to 19:10 26.603 26.608 26.607 26.609 26.609 26.610
1/7/2023 19:00 to 18:10 26.609 26.604 26.604 26.602 26.596 26.597
1/7/2023 18:00 to 17:10 26.591 26.591 26.593 26.608 26.599 26.607
1/7/2023 17:00 to 16:10 26.605 26.605 26.610 26.616 26.614 26.605
1/7/2023 16:00 to 15:10 26.609 26.626 26.628 26.618 26.620 26.626
1/7/2023 15:00 to 14:10 26.629 26.627 26.631 26.636 26.636 26.638
1/7/2023 14:00 to 13:10 26.640 26.644 26.642 26.630 26.626 26.641
1/7/2023 13:00 to 12:10 26.639 26.641 26.648 26.655 26.646 26.641
1/7/2023 12:00 to 11:10 26.655 26.656 26.654 26.655 26.661 26.666
1/7/2023 11:00 to 10:10 26.661 26.666 26.659 26.673 26.663 26.682
1/7/2023 10:00 to 9:10 26.680 26.677 26.683 26.683 26.694 26.689
1/7/2023 09:00 to 8:10 26.699 26.685 26.693 26.702 26.708 26.711
1/7/2023 08:00 to 7:10 26.715 26.712 26.718 26.720 26.712 26.726
1/7/2023 07:00 to 6:10 26.729 26.723 26.734 26.738 26.739 26.741
1/7/2023 06:00 to 5:10 26.737 26.751 26.758 26.765 26.775 26.789
1/7/2023 05:00 to 4:10 26.777 26.789 26.805 26.808 26.824 26.833
1/7/2023 04:00 to 3:10 26.836 26.840 26.847 26.855 26.858 26.856
1/7/2023 03:00 to 2:10 26.867 26.863 26.869 26.870 26.862 26.876
1/7/2023 02:00 to 1:10 26.863 26.869 26.912 26.901 26.891 26.903
1/7/2023 01:00 to 0:10 26.899 26.909 26.885 26.864 26.880 26.880

 

 

 

Conductivity [S/m]     6 entries per hour
Showing data from 1/8/2023 (17:30:00 Z) to 1/7/2023 (00:00:01 Z)
Previous Next [ Day | 3-Days | 7-Days ]
First Last
Prev [ Day | 3-Days | 7-Days ] Next
First Last

Start Time:     :
End Time:     :     
Time (in GMT) :00 :50 :40 :30 :20 :10
Previous Next [ Day | 3-Days | 7-Days ]
First Last
Prev [ Day | 3-Days | 7-Days ] Next
First Last


123 => good data
MM => data is determined as missing
-- => data not received/configured
Back to Top Back to Top
1/8/2023 18:00 to 17:10 -- -- -- 5.47565 5.47542 5.47555
1/8/2023 17:00 to 16:10 5.47534 5.47507 5.47486 5.47513 5.47490 5.47467
1/8/2023 16:00 to 15:10 5.47515 5.47650 5.47562 5.47640 5.47611 5.47631
1/8/2023 15:00 to 14:10 5.47624 5.47728 5.47661 5.47516 5.47621 5.47664
1/8/2023 14:00 to 13:10 5.47750 5.47817 5.47775 5.47808 5.47680 5.47605
1/8/2023 13:00 to 12:10 5.47645 5.47775 5.47665 5.47673 5.47737 5.47656
1/8/2023 12:00 to 11:10 5.47766 5.47768 5.47913 5.47964 5.48019 5.47948
1/8/2023 11:00 to 10:10 5.48216 5.48196 5.48162 5.48303 5.48294 5.48330
1/8/2023 10:00 to 9:10 5.48291 5.48268 5.48372 5.48264 5.48372 5.48485
1/8/2023 09:00 to 8:10 5.48330 5.48378 5.48365 5.48295 5.48262 5.48333
1/8/2023 08:00 to 7:10 5.48382 5.48196 5.48186 5.48317 5.48289 5.48180
1/8/2023 07:00 to 6:10 5.48181 5.48305 5.48390 5.48287 5.48262 5.48391
1/8/2023 06:00 to 5:10 5.48289 5.48368 5.48409 5.48433 5.48515 5.48498
1/8/2023 05:00 to 4:10 5.48645 5.48666 5.48710 5.48776 5.48824 5.48861
1/8/2023 04:00 to 3:10 5.48823 5.48746 5.48680 5.48822 5.48891 5.48898
1/8/2023 03:00 to 2:10 5.49014 5.49082 5.49144 5.49220 5.49167 5.49198
1/8/2023 02:00 to 1:10 5.49219 5.49079 5.49232 5.49001 5.49090 5.49159
1/8/2023 01:00 to 0:10 5.49038 5.48938 5.48793 5.48698 5.49088 5.48934
1/8/2023 00:00 to 23:10 5.48937 5.48830 5.48981 5.48710 5.48747 5.48716
1/7/2023 23:00 to 22:10 5.48626 5.48493 5.48596 5.48457 5.48490 5.48577
1/7/2023 22:00 to 21:10 5.48476 5.48430 5.48420 5.48533 5.48412 5.48362
1/7/2023 21:00 to 20:10 5.48265 5.48235 5.48210 5.48228 5.48224 5.48219
1/7/2023 20:00 to 19:10 5.48279 5.48280 5.48306 5.48290 5.48352 5.48365
1/7/2023 19:00 to 18:10 5.48315 5.48273 5.48308 5.48245 5.48218 5.48232
1/7/2023 18:00 to 17:10 5.48194 5.48203 5.48249 5.48381 5.48284 5.48356
1/7/2023 17:00 to 16:10 5.48330 5.48327 5.48372 5.48426 5.48379 5.48336
1/7/2023 16:00 to 15:10 5.48352 5.48513 5.48539 5.48431 5.48446 5.48497
1/7/2023 15:00 to 14:10 5.48534 5.48495 5.48545 5.48604 5.48585 5.48610
1/7/2023 14:00 to 13:10 5.48657 5.48653 5.48650 5.48520 5.48493 5.48616
1/7/2023 13:00 to 12:10 5.48569 5.48601 5.48669 5.48736 5.48631 5.48580
1/7/2023 12:00 to 11:10 5.48710 5.48739 5.48728 5.48719 5.48783 5.48821
1/7/2023 11:00 to 10:10 5.48753 5.48799 5.48767 5.48877 5.48816 5.48974
1/7/2023 10:00 to 9:10 5.48950 5.48913 5.48972 5.48974 5.49074 5.49022
1/7/2023 09:00 to 8:10 5.49131 5.48997 5.49076 5.49152 5.49220 5.49239
1/7/2023 08:00 to 7:10 5.49294 5.49258 5.49302 5.49332 5.49277 5.49417
1/7/2023 07:00 to 6:10 5.49440 5.49392 5.49490 5.49531 5.49537 5.49577
1/7/2023 06:00 to 5:10 5.49519 5.49679 5.49750 5.49830 5.49951 5.50126
1/7/2023 05:00 to 4:10 5.49959 5.50106 5.50291 5.50329 5.50501 5.50579
1/7/2023 04:00 to 3:10 5.50629 5.50637 5.50730 5.50820 5.50837 5.50794
1/7/2023 03:00 to 2:10 5.50960 5.50897 5.50937 5.50897 5.50857 5.50989
1/7/2023 02:00 to 1:10 5.50855 5.50866 5.51390 5.51267 5.51155 5.51275
1/7/2023 01:00 to 0:10 5.51215 5.51311 5.51099 5.50843 5.51042 5.51023

 

 

 

Salinity [psu]     6 entries per hour
Showing data from 1/8/2023 (17:30:00 Z) to 1/7/2023 (00:00:01 Z)
Previous Next [ Day | 3-Days | 7-Days ]
First Last
Prev [ Day | 3-Days | 7-Days ] Next
First Last

Start Time:     :
End Time:     :     
Time (in GMT) :00 :50 :40 :30 :20 :10
Previous Next [ Day | 3-Days | 7-Days ]
First Last
Prev [ Day | 3-Days | 7-Days ] Next
First Last


123 => good data
MM => data is determined as missing
-- => data not received/configured
Back to Top Back to Top
1/8/2023 18:00 to 17:10 -- -- -- 35.09 35.08 35.09
1/8/2023 17:00 to 16:10 35.09 35.09 35.09 35.08 35.09 35.09
1/8/2023 16:00 to 15:10 35.09 35.09 35.09 35.09 35.09 35.09
1/8/2023 15:00 to 14:10 35.09 35.09 35.08 35.09 35.09 35.08
1/8/2023 14:00 to 13:10 35.09 35.09 35.08 35.08 35.08 35.08
1/8/2023 13:00 to 12:10 35.08 35.08 35.08 35.08 35.08 35.08
1/8/2023 12:00 to 11:10 35.08 35.08 35.08 35.08 35.08 35.08
1/8/2023 11:00 to 10:10 35.08 35.08 35.09 35.08 35.08 35.09
1/8/2023 10:00 to 9:10 35.08 35.08 35.08 35.08 35.08 35.08
1/8/2023 09:00 to 8:10 35.08 35.08 35.08 35.07 35.08 35.07
1/8/2023 08:00 to 7:10 35.07 35.07 35.07 35.07 35.07 35.07
1/8/2023 07:00 to 6:10 35.07 35.07 35.07 35.07 35.07 35.07
1/8/2023 06:00 to 5:10 35.07 35.07 35.07 35.07 35.07 35.07
1/8/2023 05:00 to 4:10 35.07 35.07 35.07 35.07 35.07 35.07
1/8/2023 04:00 to 3:10 35.07 35.07 35.07 35.07 35.07 35.07
1/8/2023 03:00 to 2:10 35.07 35.07 35.07 35.07 35.07 35.07
1/8/2023 02:00 to 1:10 35.07 35.07 35.07 35.07 35.07 35.07
1/8/2023 01:00 to 0:10 35.06 35.07 35.07 35.06 35.07 35.06
1/8/2023 00:00 to 23:10 35.06 35.06 35.06 35.06 35.06 35.06
1/7/2023 23:00 to 22:10 35.06 35.06 35.06 35.06 35.06 35.06
1/7/2023 22:00 to 21:10 35.06 35.06 35.06 35.06 35.06 35.06
1/7/2023 21:00 to 20:10 35.06 35.05 35.05 35.05 35.05 35.05
1/7/2023 20:00 to 19:10 35.05 35.05 35.05 35.05 35.05 35.06
1/7/2023 19:00 to 18:10 35.05 35.05 35.06 35.05 35.06 35.06
1/7/2023 18:00 to 17:10 35.06 35.06 35.06 35.06 35.06 35.06
1/7/2023 17:00 to 16:10 35.06 35.06 35.06 35.05 35.05 35.06
1/7/2023 16:00 to 15:10 35.05 35.05 35.05 35.05 35.05 35.05
1/7/2023 15:00 to 14:10 35.05 35.05 35.05 35.05 35.05 35.05
1/7/2023 14:00 to 13:10 35.05 35.05 35.05 35.05 35.05 35.05
1/7/2023 13:00 to 12:10 35.05 35.05 35.05 35.05 35.05 35.05
1/7/2023 12:00 to 11:10 35.05 35.05 35.05 35.05 35.05 35.05
1/7/2023 11:00 to 10:10 35.04 35.04 35.05 35.04 35.05 35.04
1/7/2023 10:00 to 9:10 35.04 35.04 35.04 35.04 35.04 35.04
1/7/2023 09:00 to 8:10 35.04 35.04 35.04 35.04 35.04 35.04
1/7/2023 08:00 to 7:10 35.04 35.04 35.04 35.04 35.04 35.04
1/7/2023 07:00 to 6:10 35.04 35.04 35.04 35.04 35.04 35.04
1/7/2023 06:00 to 5:10 35.04 35.04 35.04 35.04 35.04 35.05
1/7/2023 05:00 to 4:10 35.04 35.04 35.05 35.05 35.05 35.05
1/7/2023 04:00 to 3:10 35.05 35.04 35.05 35.05 35.04 35.04
1/7/2023 03:00 to 2:10 35.05 35.05 35.04 35.04 35.04 35.04
1/7/2023 02:00 to 1:10 35.04 35.04 35.04 35.04 35.04 35.04
1/7/2023 01:00 to 0:10 35.04 35.04 35.04 35.04 35.04 35.04